createdAt,value
2023-05-16T00:00:22.499Z,12.72
2023-05-16T00:01:25.296Z,11.56
2023-05-16T00:02:28.472Z,11.36
2023-05-16T00:03:31.647Z,14.75
2023-05-16T00:04:35.180Z,13.42
2023-05-16T00:05:38.229Z,14.36
2023-05-16T00:06:41.128Z,16.45
2023-05-16T00:07:43.779Z,14.85
2023-05-16T00:08:46.857Z,16.99
2023-05-16T00:09:49.824Z,14.52
2023-05-16T00:10:52.493Z,13.38
2023-05-16T00:11:54.962Z,11.35
2023-05-16T00:12:57.741Z,11.58
2023-05-16T00:14:00.619Z,9.81
2023-05-16T00:15:03.278Z,11.34
2023-05-16T00:16:06.399Z,14.42
2023-05-16T00:17:09.140Z,9.86
2023-05-16T00:18:11.980Z,11.25
2023-05-16T00:19:14.700Z,11.62
2023-05-16T00:20:17.651Z,9.53
2023-05-16T00:21:22.270Z,9.55
2023-05-16T00:22:23.918Z,10.44
2023-05-16T00:23:26.386Z,12.23
2023-05-16T00:24:29.048Z,14.16
2023-05-16T00:25:31.626Z,14.35
2023-05-16T00:26:34.385Z,17.15
2023-05-16T00:27:37.264Z,10.82
2023-05-16T00:28:40.045Z,12.92
2023-05-16T00:29:43.130Z,16.98
2023-05-16T00:30:45.788Z,26.49
2023-05-16T00:31:48.582Z,9.68
2023-05-16T00:32:51.297Z,12.38
2023-05-16T00:33:53.898Z,10.18
2023-05-16T00:34:56.978Z,12.18
2023-05-16T00:35:59.857Z,11.10
2023-05-16T00:37:02.417Z,9.42
2023-05-16T00:38:05.510Z,10.31
2023-05-16T00:39:08.372Z,9.65
2023-05-16T00:40:11.473Z,10.28
2023-05-16T00:41:14.327Z,13.05
2023-05-16T00:42:17.009Z,10.83
2023-05-16T00:43:19.791Z,12.47
2023-05-16T00:44:23.263Z,14.61
2023-05-16T00:45:26.143Z,13.74
2023-05-16T00:46:29.065Z,10.68
2023-05-16T00:47:31.336Z,8.98
2023-05-16T00:48:34.044Z,10.85
2023-05-16T00:49:36.618Z,8.65
2023-05-16T00:50:39.685Z,10.35
2023-05-16T00:51:42.562Z,13.14
2023-05-16T00:52:45.770Z,10.36
2023-05-16T00:53:48.720Z,15.04
2023-05-16T00:54:51.597Z,16.79
2023-05-16T00:55:54.536Z,15.36
2023-05-16T00:56:57.544Z,13.50
2023-05-16T00:58:00.321Z,21.92
2023-05-16T00:59:03.300Z,14.10
2023-05-16T01:00:06.183Z,19.89
2023-05-16T01:01:09.086Z,12.91
2023-05-16T01:02:12.185Z,10.93
2023-05-16T01:03:15.187Z,11.98
2023-05-16T01:04:18.287Z,11.31
2023-05-16T01:05:21.173Z,10.47
2023-05-16T01:06:23.834Z,9.87
2023-05-16T01:07:26.706Z,13.03
2023-05-16T01:08:29.680Z,33.26
2023-05-16T01:09:32.456Z,13.19
2023-05-16T01:10:35.324Z,10.58
2023-05-16T01:11:38.104Z,9.72
2023-05-16T01:12:40.868Z,7.67
2023-05-16T01:13:43.748Z,13.15
2023-05-16T01:14:46.717Z,13.69
2023-05-16T01:15:49.659Z,11.29
2023-05-16T01:16:52.571Z,10.12
2023-05-16T01:17:55.408Z,11.65
2023-05-16T01:18:58.416Z,14.11
2023-05-16T01:20:01.221Z,13.70
2023-05-16T01:21:04.192Z,11.58
2023-05-16T01:22:07.362Z,11.11
2023-05-16T01:23:10.223Z,16.42
2023-05-16T01:24:13.109Z,11.75
2023-05-16T01:25:15.775Z,14.00
2023-05-16T01:26:18.444Z,13.81
2023-05-16T01:27:21.224Z,11.83
2023-05-16T01:28:23.790Z,17.83
2023-05-16T01:29:26.452Z,9.59
2023-05-16T01:30:29.222Z,10.93
2023-05-16T01:31:31.943Z,13.77
2023-05-16T01:32:34.582Z,12.37
2023-05-16T01:33:37.233Z,13.22
2023-05-16T01:34:39.906Z,10.79
2023-05-16T01:35:42.783Z,14.25
2023-05-16T01:36:45.302Z,9.25
2023-05-16T01:37:47.917Z,12.01
2023-05-16T01:38:50.595Z,11.62
2023-05-16T01:39:53.161Z,8.49
2023-05-16T01:40:55.721Z,10.77
2023-05-16T01:41:58.386Z,10.43
2023-05-16T01:43:01.362Z,10.16
2023-05-16T01:44:04.042Z,9.18
2023-05-16T01:45:06.801Z,14.48
2023-05-16T01:46:09.499Z,12.94
2023-05-16T01:47:12.278Z,10.36
2023-05-16T01:48:15.203Z,8.75
2023-05-16T01:49:17.814Z,8.67
2023-05-16T01:50:20.526Z,8.78
2023-05-16T01:51:23.033Z,6.37
2023-05-16T01:52:25.599Z,9.80
2023-05-16T01:53:28.268Z,11.70
2023-05-16T01:54:31.054Z,11.63
2023-05-16T01:55:33.619Z,9.68
2023-05-16T01:56:36.279Z,9.04
2023-05-16T01:57:38.946Z,6.91
2023-05-16T01:58:41.747Z,7.53
2023-05-16T01:59:44.285Z,9.37
2023-05-16T02:00:47.187Z,6.91
2023-05-16T02:01:49.844Z,6.28
2023-05-16T02:02:52.666Z,4.78
2023-05-16T02:03:55.738Z,5.57
2023-05-16T02:04:58.454Z,7.07
2023-05-16T02:06:01.051Z,7.67
2023-05-16T02:07:03.692Z,8.11
2023-05-16T02:08:06.284Z,10.12
2023-05-16T02:09:09.241Z,15.29
2023-05-16T02:10:11.919Z,15.92
2023-05-16T02:11:14.472Z,28.36
2023-05-16T02:12:17.042Z,31.75
2023-05-16T02:13:19.606Z,21.52
2023-05-16T02:14:22.482Z,21.66
2023-05-16T02:15:25.318Z,28.79
2023-05-16T02:16:27.955Z,42.58
2023-05-16T02:17:30.617Z,12.22
2023-05-16T02:18:33.181Z,16.11
2023-05-16T02:19:35.830Z,3.95
2023-05-16T02:20:38.502Z,5.67
2023-05-16T02:21:41.303Z,11.62
2023-05-16T02:22:43.843Z,6.28
2023-05-16T02:23:46.410Z,9.63
2023-05-16T02:24:49.182Z,5.88
2023-05-16T02:25:51.956Z,4.38
2023-05-16T02:26:54.838Z,7.68
2023-05-16T02:27:57.712Z,6.75
2023-05-16T02:29:00.590Z,3.79
2023-05-16T02:30:03.057Z,5.56
2023-05-16T02:31:06.121Z,10.42
2023-05-16T02:32:08.999Z,17.71
2023-05-16T02:33:11.992Z,19.42
2023-05-16T02:34:15.056Z,11.25
2023-05-16T02:35:17.629Z,10.95
2023-05-16T02:36:20.396Z,3.96
2023-05-16T02:37:22.967Z,5.76
2023-05-16T02:38:28.909Z,15.48
2023-05-16T02:39:31.784Z,21.21
2023-05-16T02:40:34.762Z,15.97
2023-05-16T02:41:37.559Z,8.23
2023-05-16T02:42:40.207Z,4.98
2023-05-16T02:43:44.855Z,8.25
2023-05-16T02:44:47.084Z,6.73
2023-05-16T02:45:50.202Z,11.12
2023-05-16T02:46:52.935Z,12.18
2023-05-16T02:47:55.941Z,18.86
2023-05-16T02:48:58.690Z,17.12
2023-05-16T02:50:01.355Z,9.98
2023-05-16T02:51:04.328Z,6.68
2023-05-16T02:52:07.101Z,8.90
2023-05-16T02:53:11.001Z,4.38
2023-05-16T02:54:13.977Z,7.72
2023-05-16T02:55:22.306Z,8.51
2023-05-16T02:56:21.461Z,10.55
2023-05-16T02:57:24.342Z,15.86
2023-05-16T02:58:27.314Z,15.92
2023-05-16T02:59:29.983Z,11.84
2023-05-16T03:00:32.758Z,15.65
2023-05-16T03:01:35.999Z,6.56
2023-05-16T03:02:39.129Z,6.12
2023-05-16T03:03:42.220Z,14.85
2023-05-16T03:04:44.801Z,4.95
2023-05-16T03:05:47.541Z,11.39
2023-05-16T03:06:50.519Z,30.40
2023-05-16T03:07:53.390Z,15.01
2023-05-16T03:08:56.163Z,12.99
2023-05-16T03:09:59.061Z,6.14
2023-05-16T03:11:02.018Z,6.47
2023-05-16T03:12:06.940Z,6.94
2023-05-16T03:13:09.502Z,5.94
2023-05-16T03:14:12.174Z,8.23
2023-05-16T03:15:14.743Z,10.18
2023-05-16T03:16:17.344Z,10.87
2023-05-16T03:17:20.222Z,8.76
2023-05-16T03:18:22.957Z,6.36
2023-05-16T03:19:25.667Z,7.42
2023-05-16T03:20:28.302Z,4.23
2023-05-16T03:21:30.972Z,4.15
2023-05-16T03:22:33.840Z,3.44
2023-05-16T03:23:36.506Z,4.11
2023-05-16T03:24:39.449Z,5.78
2023-05-16T03:25:42.162Z,4.74
2023-05-16T03:26:45.040Z,4.81
2023-05-16T03:27:48.114Z,5.07
2023-05-16T03:28:50.990Z,4.48
2023-05-16T03:29:53.860Z,5.12
2023-05-16T03:30:56.743Z,5.34
2023-05-16T03:31:59.665Z,4.98
2023-05-16T03:33:02.628Z,4.78
2023-05-16T03:34:05.457Z,3.35
2023-05-16T03:35:08.236Z,4.29
2023-05-16T03:36:11.425Z,3.82
2023-05-16T03:37:14.308Z,4.36
2023-05-16T03:38:17.162Z,4.94
2023-05-16T03:39:20.045Z,8.84
2023-05-16T03:40:22.921Z,5.12
2023-05-16T03:41:25.691Z,4.18
2023-05-16T03:42:28.870Z,3.76
2023-05-16T03:43:31.861Z,5.88
2023-05-16T03:44:34.629Z,4.65
2023-05-16T03:45:37.342Z,4.25
2023-05-16T03:46:40.177Z,3.32
2023-05-16T03:47:43.198Z,3.62
2023-05-16T03:48:45.816Z,2.96
2023-05-16T03:49:48.790Z,3.58
2023-05-16T03:50:51.878Z,4.92
2023-05-16T03:51:54.644Z,4.77
2023-05-16T03:52:57.620Z,4.83
2023-05-16T03:54:00.604Z,6.75
2023-05-16T03:55:03.476Z,3.42
2023-05-16T03:56:09.425Z,3.66
2023-05-16T03:57:12.317Z,4.01
2023-05-16T03:58:15.274Z,3.22
2023-05-16T03:59:18.352Z,3.89
2023-05-16T04:00:21.242Z,4.45
2023-05-16T04:01:23.811Z,5.73
2023-05-16T04:02:26.621Z,4.67
2023-05-16T04:03:29.267Z,3.63
2023-05-16T04:04:32.626Z,6.38
2023-05-16T04:05:35.455Z,5.16
2023-05-16T04:06:38.302Z,4.17
2023-05-16T04:07:40.942Z,8.02
2023-05-16T04:08:43.611Z,5.42
2023-05-16T04:09:46.280Z,4.07
2023-05-16T04:10:48.840Z,3.21
2023-05-16T04:11:51.421Z,5.35
2023-05-16T04:12:54.081Z,3.33
2023-05-16T04:13:56.735Z,3.28
2023-05-16T04:14:59.449Z,3.19
2023-05-16T04:16:02.113Z,4.08
2023-05-16T04:17:04.794Z,5.44
2023-05-16T04:18:07.491Z,3.43
2023-05-16T04:19:10.013Z,5.05
2023-05-16T04:20:13.086Z,3.98
2023-05-16T04:21:15.550Z,3.42
2023-05-16T04:22:18.525Z,2.82
2023-05-16T04:23:21.399Z,4.34
2023-05-16T04:24:24.159Z,4.70
2023-05-16T04:25:27.366Z,4.67
2023-05-16T04:26:30.342Z,3.15
2023-05-16T04:27:32.990Z,4.42
2023-05-16T04:28:35.991Z,5.60
2023-05-16T04:29:38.750Z,3.60
2023-05-16T04:30:41.822Z,3.30
2023-05-16T04:31:44.642Z,3.82
2023-05-16T04:32:47.517Z,3.57
2023-05-16T04:33:50.459Z,4.36
2023-05-16T04:34:53.230Z,4.09
2023-05-16T04:35:55.997Z,5.17
2023-05-16T04:36:58.864Z,3.58
2023-05-16T04:38:01.754Z,3.75
2023-05-16T04:39:04.620Z,4.77
2023-05-16T04:40:07.638Z,5.89
2023-05-16T04:41:10.572Z,4.26
2023-05-16T04:42:13.245Z,3.79
2023-05-16T04:43:16.008Z,3.76
2023-05-16T04:44:18.780Z,4.09
2023-05-16T04:45:21.365Z,5.08
2023-05-16T04:46:24.333Z,5.36
2023-05-16T04:47:27.152Z,5.09
2023-05-16T04:48:30.096Z,2.95
2023-05-16T04:49:33.218Z,3.25
2023-05-16T04:50:35.954Z,3.46
2023-05-16T04:51:38.926Z,3.55
2023-05-16T04:52:41.691Z,3.62
2023-05-16T04:53:44.767Z,3.25
2023-05-16T04:54:47.734Z,3.98
2023-05-16T04:55:50.924Z,3.55
2023-05-16T04:56:54.103Z,3.49
2023-05-16T04:57:56.875Z,4.32
2023-05-16T04:58:59.865Z,3.11
2023-05-16T05:00:02.735Z,2.62
2023-05-16T05:01:05.255Z,2.58
2023-05-16T05:02:08.355Z,4.99
2023-05-16T05:03:11.037Z,3.09
2023-05-16T05:04:13.616Z,4.28
2023-05-16T05:05:16.346Z,4.37
2023-05-16T05:06:19.049Z,4.00
2023-05-16T05:07:21.629Z,5.90
2023-05-16T05:08:24.096Z,5.05
2023-05-16T05:09:27.062Z,2.95
2023-05-16T05:10:29.943Z,4.93
2023-05-16T05:11:32.617Z,2.73
2023-05-16T05:12:35.493Z,2.91
2023-05-16T05:13:38.157Z,2.76
2023-05-16T05:14:40.744Z,3.62
2023-05-16T05:15:43.397Z,4.31
2023-05-16T05:16:46.087Z,4.08
2023-05-16T05:17:48.843Z,3.45
2023-05-16T05:18:51.733Z,3.88
2023-05-16T05:19:54.590Z,3.43
2023-05-16T05:20:57.253Z,3.52
2023-05-16T05:22:00.044Z,3.99
2023-05-16T05:23:02.794Z,4.70
2023-05-16T05:24:05.472Z,2.52
2023-05-16T05:25:08.130Z,5.15
2023-05-16T05:26:10.805Z,3.54
2023-05-16T05:27:13.474Z,4.12
2023-05-16T05:28:16.362Z,3.46
2023-05-16T05:29:19.133Z,2.82
2023-05-16T05:30:21.813Z,3.25
2023-05-16T05:31:24.523Z,4.26
2023-05-16T05:32:27.217Z,5.12
2023-05-16T05:33:29.917Z,3.12
2023-05-16T05:34:32.477Z,3.64
2023-05-16T05:35:35.056Z,3.04
2023-05-16T05:36:37.712Z,2.74
2023-05-16T05:37:40.385Z,3.46
2023-05-16T05:38:43.049Z,4.08
2023-05-16T05:39:45.611Z,2.95
2023-05-16T05:40:48.282Z,2.49
2023-05-16T05:41:50.952Z,3.62
2023-05-16T05:42:53.835Z,4.16
2023-05-16T05:43:56.939Z,4.69
2023-05-16T05:44:59.799Z,2.50
2023-05-16T05:46:02.786Z,3.33
2023-05-16T05:47:05.640Z,4.22
2023-05-16T05:48:08.694Z,4.68
2023-05-16T05:49:11.801Z,3.52
2023-05-16T05:50:14.567Z,3.15
2023-05-16T05:51:17.561Z,3.94
2023-05-16T05:52:20.317Z,4.93
2023-05-16T05:53:23.290Z,4.06
2023-05-16T05:54:26.161Z,3.62
2023-05-16T05:55:29.440Z,4.23
2023-05-16T05:56:32.321Z,4.68
2023-05-16T05:57:35.198Z,4.92
2023-05-16T05:58:37.968Z,4.37
2023-05-16T05:59:41.050Z,6.22
2023-05-16T06:00:43.624Z,4.28
2023-05-16T06:01:46.340Z,4.56
2023-05-16T06:02:49.495Z,4.91
2023-05-16T06:03:52.557Z,4.32
2023-05-16T06:04:55.660Z,4.00
2023-05-16T06:05:58.490Z,6.22
2023-05-16T06:07:01.282Z,5.91
2023-05-16T06:08:03.852Z,7.50
2023-05-16T06:09:06.331Z,2.68
2023-05-16T06:10:08.995Z,3.27
2023-05-16T06:11:11.553Z,3.15
2023-05-16T06:12:14.226Z,3.73
2023-05-16T06:13:17.000Z,3.08
2023-05-16T06:14:19.973Z,3.38
2023-05-16T06:15:22.950Z,6.20
2023-05-16T06:16:25.741Z,3.49
2023-05-16T06:17:28.842Z,4.12
2023-05-16T06:18:31.726Z,3.82
2023-05-16T06:19:34.554Z,4.12
2023-05-16T06:20:37.524Z,2.71
2023-05-16T06:21:40.311Z,4.37
2023-05-16T06:22:43.076Z,4.28
2023-05-16T06:23:45.749Z,4.15
2023-05-16T06:24:48.615Z,6.85
2023-05-16T06:25:51.494Z,3.72
2023-05-16T06:26:54.465Z,5.55
2023-05-16T06:27:57.254Z,2.85
2023-05-16T06:29:00.155Z,4.45
2023-05-16T06:30:02.989Z,4.25
2023-05-16T06:31:05.750Z,4.70
2023-05-16T06:32:10.335Z,3.96
2023-05-16T06:33:13.368Z,3.60
2023-05-16T06:34:15.920Z,5.00
2023-05-16T06:35:18.907Z,7.19
2023-05-16T06:36:22.177Z,6.62
2023-05-16T06:37:24.856Z,3.89
2023-05-16T06:38:27.729Z,5.01
2023-05-16T06:39:30.515Z,5.08
2023-05-16T06:40:33.273Z,3.88
2023-05-16T06:41:36.456Z,5.32
2023-05-16T06:42:40.454Z,5.82
2023-05-16T06:43:43.040Z,6.49
2023-05-16T06:44:45.997Z,4.95
2023-05-16T06:45:48.973Z,6.67
2023-05-16T06:46:51.842Z,4.78
2023-05-16T06:47:56.642Z,6.78
2023-05-16T06:48:58.529Z,6.56
2023-05-16T06:50:01.234Z,7.26
2023-05-16T06:51:03.972Z,6.10
2023-05-16T06:52:06.734Z,6.25
2023-05-16T06:53:09.510Z,6.62
2023-05-16T06:54:12.029Z,8.72
2023-05-16T06:55:14.641Z,6.70
2023-05-16T06:56:17.221Z,5.35
2023-05-16T06:57:19.982Z,5.22
2023-05-16T06:58:22.779Z,6.88
2023-05-16T06:59:27.433Z,4.39
2023-05-16T07:00:29.767Z,6.24
2023-05-16T07:01:32.546Z,5.85
2023-05-16T07:02:35.629Z,6.94
2023-05-16T07:03:38.550Z,5.12
2023-05-16T07:04:41.144Z,6.57
2023-05-16T07:05:43.909Z,4.90
2023-05-16T07:06:46.578Z,6.92
2023-05-16T07:07:49.562Z,6.23
2023-05-16T07:08:52.320Z,4.64
2023-05-16T07:09:55.295Z,7.81
2023-05-16T07:10:58.086Z,7.98
2023-05-16T07:12:00.949Z,5.35
2023-05-16T07:13:04.076Z,5.01
2023-05-16T07:14:06.536Z,4.19
2023-05-16T07:15:09.363Z,5.25
2023-05-16T07:16:12.177Z,7.67
2023-05-16T07:17:15.025Z,6.13
2023-05-16T07:18:18.011Z,5.07
2023-05-16T07:19:20.740Z,7.11
2023-05-16T07:20:23.643Z,6.49
2023-05-16T07:21:26.627Z,6.22
2023-05-16T07:22:29.494Z,5.63
2023-05-16T07:23:32.370Z,8.25
2023-05-16T07:24:35.155Z,6.33
2023-05-16T07:25:38.226Z,5.10
2023-05-16T07:26:41.095Z,7.28
2023-05-16T07:27:43.987Z,8.85
2023-05-16T07:28:47.228Z,6.45
2023-05-16T07:29:50.637Z,7.26
2023-05-16T07:30:54.105Z,6.62
2023-05-16T07:31:56.988Z,6.85
2023-05-16T07:33:00.412Z,8.64
2023-05-16T07:34:03.483Z,8.64
2023-05-16T07:35:06.640Z,8.01
2023-05-16T07:37:14.326Z,6.61
2023-05-16T07:38:17.420Z,6.87
2023-05-16T07:39:20.998Z,6.18
2023-05-16T07:40:24.173Z,7.38
2023-05-16T07:41:33.559Z,6.08
2023-05-16T07:42:36.585Z,8.01
2023-05-16T07:43:39.979Z,7.14
2023-05-16T07:44:44.070Z,6.98
2023-05-16T07:45:47.786Z,6.50
2023-05-16T07:46:50.629Z,10.40
2023-05-16T07:47:53.808Z,7.25
2023-05-16T07:48:56.810Z,8.08
2023-05-16T07:50:00.186Z,8.37
2023-05-16T07:51:04.288Z,7.58
2023-05-16T07:52:07.780Z,10.01
2023-05-16T07:53:11.294Z,9.98
2023-05-16T07:54:14.561Z,7.38
2023-05-16T07:55:19.370Z,7.48
2023-05-16T07:56:22.377Z,6.46
2023-05-16T07:57:25.825Z,6.72
2023-05-16T07:58:29.036Z,7.50
2023-05-16T07:59:32.124Z,6.94
2023-05-16T08:00:35.295Z,7.71
2023-05-16T08:01:38.356Z,7.17
2023-05-16T08:02:41.614Z,6.55
2023-05-16T08:03:44.764Z,7.22
2023-05-16T08:04:47.910Z,10.97
2023-05-16T08:05:51.228Z,9.40
2023-05-16T08:06:54.370Z,7.13
2023-05-16T08:07:57.448Z,7.56
2023-05-16T08:09:00.427Z,8.48
2023-05-16T08:10:03.723Z,6.02
2023-05-16T08:11:07.004Z,10.93
2023-05-16T08:12:10.074Z,10.27
2023-05-16T08:13:13.259Z,9.76
2023-05-16T08:14:16.345Z,7.90
2023-05-16T08:15:19.428Z,9.59
2023-05-16T08:16:22.876Z,8.64
2023-05-16T08:17:25.919Z,9.54
2023-05-16T08:18:29.066Z,11.86
2023-05-16T08:19:32.344Z,7.95
2023-05-16T08:20:35.121Z,8.73
2023-05-16T08:21:38.422Z,8.65
2023-05-16T08:22:42.647Z,9.12
2023-05-16T08:23:45.787Z,8.09
2023-05-16T08:24:49.176Z,7.50
2023-05-16T08:25:52.360Z,10.37
2023-05-16T08:26:55.452Z,9.74
2023-05-16T08:27:58.629Z,9.32
2023-05-16T08:29:01.605Z,8.55
2023-05-16T08:30:04.577Z,7.13
2023-05-16T08:31:07.765Z,9.92
2023-05-16T08:32:11.069Z,10.42
2023-05-16T08:33:14.221Z,9.00
2023-05-16T08:34:17.302Z,8.69
2023-05-16T08:35:20.596Z,8.10
2023-05-16T08:36:23.461Z,10.08
2023-05-16T08:37:26.746Z,9.06
2023-05-16T08:38:29.728Z,12.14
2023-05-16T08:39:33.086Z,8.78
2023-05-16T08:40:36.293Z,9.17
2023-05-16T08:41:39.472Z,11.42
2023-05-16T08:42:44.687Z,10.64
2023-05-16T08:43:47.474Z,11.17
2023-05-16T08:44:50.769Z,9.91
2023-05-16T08:45:53.945Z,9.65
2023-05-16T08:46:57.301Z,11.51
2023-05-16T08:48:00.536Z,9.58
2023-05-16T08:49:03.699Z,9.04
2023-05-16T08:50:06.878Z,8.64
2023-05-16T08:51:10.168Z,9.19
2023-05-16T08:52:13.554Z,8.09
2023-05-16T08:53:17.032Z,10.15
2023-05-16T08:54:20.212Z,9.23
2023-05-16T08:55:23.311Z,10.23
2023-05-16T08:56:26.276Z,10.53
2023-05-16T08:57:29.558Z,9.55
2023-05-16T08:58:32.744Z,11.01
2023-05-16T08:59:38.167Z,7.48
2023-05-16T09:00:41.100Z,13.33
2023-05-16T09:01:44.195Z,17.16
2023-05-16T09:02:47.478Z,11.28
2023-05-16T09:03:50.408Z,11.77
2023-05-16T09:04:53.369Z,14.65
2023-05-16T09:05:56.453Z,8.78
2023-05-16T09:06:59.432Z,10.29
2023-05-16T09:08:02.835Z,9.59
2023-05-16T09:09:06.095Z,13.88
2023-05-16T09:10:09.277Z,10.29
2023-05-16T09:11:12.679Z,11.50
2023-05-16T09:12:16.162Z,10.92
2023-05-16T09:13:19.334Z,9.14
2023-05-16T09:14:22.726Z,9.54
2023-05-16T09:15:25.949Z,11.05
2023-05-16T09:16:29.035Z,14.85
2023-05-16T09:17:38.984Z,10.10
2023-05-16T09:18:36.757Z,10.72
2023-05-16T09:19:39.815Z,12.74
2023-05-16T09:20:42.952Z,10.60
2023-05-16T09:21:45.713Z,8.69
2023-05-16T09:22:48.611Z,10.04
2023-05-16T09:23:51.265Z,9.36
2023-05-16T09:24:54.448Z,10.51
2023-05-16T09:25:57.623Z,10.21
2023-05-16T09:27:00.703Z,13.04
2023-05-16T09:28:04.095Z,14.71
2023-05-16T09:29:07.172Z,9.25
2023-05-16T09:30:10.257Z,9.72
2023-05-16T09:31:13.461Z,9.92
2023-05-16T09:32:16.616Z,9.52
2023-05-16T09:33:19.809Z,8.96
2023-05-16T09:34:22.674Z,10.66
2023-05-16T09:35:42.506Z,9.45
2023-05-16T09:36:30.671Z,10.40
2023-05-16T09:37:34.058Z,10.33
2023-05-16T09:38:37.032Z,10.80
2023-05-16T09:39:40.314Z,10.62
2023-05-16T09:40:43.805Z,11.88
2023-05-16T09:41:47.315Z,10.73
2023-05-16T09:42:50.684Z,10.89
2023-05-16T09:43:57.038Z,10.19
2023-05-16T09:45:03.563Z,11.93
2023-05-16T09:46:07.311Z,9.14
2023-05-16T09:47:10.273Z,11.04
2023-05-16T09:48:13.371Z,11.00
2023-05-16T09:49:16.432Z,10.48
2023-05-16T09:50:19.542Z,8.97
2023-05-16T09:51:22.801Z,8.95
2023-05-16T09:52:28.884Z,10.17
2023-05-16T09:53:31.817Z,11.86
2023-05-16T09:54:34.699Z,11.05
2023-05-16T09:55:37.777Z,8.85
2023-05-16T09:56:41.263Z,13.96
2023-05-16T09:57:44.237Z,9.33
2023-05-16T09:58:47.112Z,10.32
2023-05-16T09:59:50.194Z,12.68
2023-05-16T10:00:52.958Z,10.78
2023-05-16T10:01:55.906Z,9.74
2023-05-16T10:02:59.811Z,8.76
2023-05-16T10:04:03.388Z,10.38
2023-05-16T10:05:06.122Z,8.92
2023-05-16T10:06:08.883Z,16.04
2023-05-16T10:07:12.362Z,13.23
2023-05-16T10:08:15.052Z,9.02
2023-05-16T10:09:18.113Z,10.76
2023-05-16T10:10:20.987Z,8.43
2023-05-16T10:11:23.998Z,9.96
2023-05-16T10:12:26.941Z,8.59
2023-05-16T10:13:30.030Z,8.30
2023-05-16T10:14:33.098Z,8.36
2023-05-16T10:15:35.972Z,7.56
2023-05-16T10:16:38.991Z,9.68
2023-05-16T10:17:42.277Z,8.26
2023-05-16T10:18:45.666Z,9.08
2023-05-16T10:19:51.569Z,8.99
2023-05-16T10:20:54.439Z,8.93
2023-05-16T10:21:57.525Z,7.98
2023-05-16T10:23:00.936Z,8.81
2023-05-16T10:24:03.895Z,8.49
2023-05-16T10:25:07.070Z,10.12
2023-05-16T10:26:10.348Z,9.78
2023-05-16T10:27:19.097Z,9.86
2023-05-16T10:28:21.697Z,8.87
2023-05-16T10:29:24.613Z,9.54
2023-05-16T10:30:28.215Z,10.23
2023-05-16T10:31:31.047Z,10.86
2023-05-16T10:32:33.878Z,9.68
2023-05-16T10:33:36.718Z,9.10
2023-05-16T10:34:40.004Z,7.65
2023-05-16T10:35:42.985Z,9.35
2023-05-16T10:36:45.963Z,8.66
2023-05-16T10:37:48.830Z,9.00
2023-05-16T10:38:51.915Z,7.76
2023-05-16T10:39:55.089Z,6.73
2023-05-16T10:40:58.065Z,9.37
2023-05-16T10:42:00.751Z,9.41
2023-05-16T10:43:03.954Z,11.62
2023-05-16T10:44:07.418Z,8.86
2023-05-16T10:45:10.185Z,9.93
2023-05-16T10:46:13.187Z,9.28
2023-05-16T10:47:16.450Z,6.19
2023-05-16T10:48:19.149Z,9.32
2023-05-16T10:49:22.019Z,8.74
2023-05-16T10:50:24.862Z,8.37
2023-05-16T10:51:27.632Z,10.48
2023-05-16T10:52:30.505Z,9.49
2023-05-16T10:53:33.294Z,8.80
2023-05-16T10:54:36.162Z,8.73
2023-05-16T10:55:38.484Z,10.22
2023-05-16T10:56:41.414Z,12.78
2023-05-16T10:57:47.882Z,8.82
2023-05-16T10:58:50.827Z,9.57
2023-05-16T10:59:54.363Z,12.72
2023-05-16T11:00:58.352Z,7.50
2023-05-16T11:02:01.332Z,8.57
2023-05-16T11:03:04.386Z,8.53
2023-05-16T11:04:08.578Z,9.55
2023-05-16T11:05:11.452Z,12.69
2023-05-16T11:06:15.073Z,11.53
2023-05-16T11:07:18.249Z,11.93
2023-05-16T11:08:21.522Z,9.25
2023-05-16T11:09:24.554Z,11.39
2023-05-16T11:10:28.642Z,12.41
2023-05-16T11:11:31.586Z,10.93
2023-05-16T11:12:34.546Z,10.48
2023-05-16T11:13:37.427Z,8.76
2023-05-16T11:14:40.601Z,9.33
2023-05-16T11:15:47.281Z,9.10
2023-05-16T11:16:50.213Z,10.52
2023-05-16T11:17:53.362Z,11.36
2023-05-16T11:18:56.842Z,9.22
2023-05-16T11:20:00.056Z,12.08
2023-05-16T11:21:03.181Z,10.91
2023-05-16T11:22:06.470Z,11.24
2023-05-16T11:23:09.230Z,9.42
2023-05-16T11:24:12.012Z,10.43
2023-05-16T11:25:15.035Z,10.66
2023-05-16T11:26:17.856Z,11.79
2023-05-16T11:27:20.741Z,9.96
2023-05-16T11:28:26.480Z,11.66
2023-05-16T11:29:29.556Z,13.22
2023-05-16T11:30:32.429Z,16.87
2023-05-16T11:31:35.356Z,11.74
2023-05-16T11:32:38.521Z,10.82
2023-05-16T11:33:41.254Z,11.28
2023-05-16T11:34:44.029Z,12.24
2023-05-16T11:35:46.907Z,11.54
2023-05-16T11:36:49.570Z,11.09
2023-05-16T11:37:52.453Z,16.47
2023-05-16T11:38:55.216Z,17.48
2023-05-16T11:39:58.033Z,13.23
2023-05-16T11:41:00.865Z,15.98
2023-05-16T11:42:03.638Z,14.49
2023-05-16T11:43:07.401Z,16.48
2023-05-16T11:44:10.616Z,13.81
2023-05-16T11:45:13.395Z,10.92
2023-05-16T11:46:16.129Z,12.06
2023-05-16T11:47:20.165Z,11.88
2023-05-16T11:48:35.383Z,10.50
2023-05-16T11:49:27.246Z,11.06
2023-05-16T11:50:30.021Z,14.72
2023-05-16T11:51:32.810Z,12.62
2023-05-16T11:52:35.875Z,15.05
2023-05-16T11:53:39.464Z,12.85
2023-05-16T11:54:42.748Z,14.97
2023-05-16T11:55:46.158Z,11.87
2023-05-16T11:56:49.633Z,12.30
2023-05-16T11:57:53.034Z,14.65
2023-05-16T11:58:56.100Z,11.76
2023-05-16T11:59:59.065Z,12.28
2023-05-16T12:01:02.148Z,15.70
2023-05-16T12:02:05.233Z,15.42
2023-05-16T12:03:08.671Z,10.65
2023-05-16T12:04:11.982Z,10.66
2023-05-16T12:05:15.149Z,14.67
2023-05-16T12:06:18.050Z,13.82
2023-05-16T12:07:23.204Z,13.52
2023-05-16T12:08:28.324Z,11.33
2023-05-16T12:09:29.851Z,11.69
2023-05-16T12:10:32.831Z,11.53
2023-05-16T12:11:35.810Z,14.28
2023-05-16T12:12:38.787Z,16.23
2023-05-16T12:13:41.967Z,14.75
2023-05-16T12:14:45.568Z,14.23
2023-05-16T12:15:48.633Z,11.93
2023-05-16T12:16:51.547Z,11.71
2023-05-16T12:17:54.595Z,12.22
2023-05-16T12:18:57.923Z,14.91
2023-05-16T12:20:00.855Z,14.58
2023-05-16T12:21:03.837Z,12.12
2023-05-16T12:22:06.703Z,13.78
2023-05-16T12:23:09.473Z,17.48
2023-05-16T12:24:12.199Z,11.08
2023-05-16T12:25:14.928Z,14.13
2023-05-16T12:26:17.590Z,11.95
2023-05-16T12:27:20.256Z,13.66
2023-05-16T12:28:23.025Z,15.63
2023-05-16T12:29:26.525Z,12.00
2023-05-16T12:30:30.072Z,13.78
2023-05-16T12:31:33.371Z,13.40
2023-05-16T12:32:36.494Z,13.62
2023-05-16T12:33:39.836Z,14.96
2023-05-16T12:34:43.254Z,13.98
2023-05-16T12:35:46.328Z,16.35
2023-05-16T12:36:49.522Z,16.39
2023-05-16T12:37:52.701Z,14.98
2023-05-16T12:38:55.678Z,17.02
2023-05-16T12:39:59.061Z,16.68
2023-05-16T12:41:02.141Z,12.80
2023-05-16T12:42:05.114Z,16.45
2023-05-16T12:43:08.296Z,16.88
2023-05-16T12:44:11.373Z,16.55
2023-05-16T12:45:14.656Z,18.78
2023-05-16T12:46:17.741Z,15.95
2023-05-16T12:47:20.816Z,15.35
2023-05-16T12:48:23.689Z,15.41
2023-05-16T12:49:26.669Z,14.89
2023-05-16T12:50:29.922Z,15.80
2023-05-16T12:51:35.396Z,15.15
2023-05-16T12:52:37.749Z,15.26
2023-05-16T12:53:40.735Z,13.76
2023-05-16T12:54:43.801Z,13.85
2023-05-16T12:55:47.025Z,14.79
2023-05-16T12:56:50.002Z,16.05
2023-05-16T12:57:52.997Z,12.58
2023-05-16T12:58:56.222Z,14.20
2023-05-16T12:59:59.099Z,15.75
2023-05-16T13:01:02.395Z,16.94
2023-05-16T13:02:05.778Z,26.36
2023-05-16T13:03:11.996Z,23.83
2023-05-16T13:04:14.106Z,21.10
2023-05-16T13:05:16.805Z,19.81
2023-05-16T13:06:19.621Z,18.31
2023-05-16T13:07:22.703Z,24.56
2023-05-16T13:08:25.986Z,24.15
2023-05-16T13:09:32.507Z,23.26
2023-05-16T13:10:33.580Z,22.97
2023-05-16T13:11:36.990Z,26.82
2023-05-16T13:12:39.970Z,26.07
2023-05-16T13:13:42.918Z,29.52
2023-05-16T13:14:45.705Z,35.14
2023-05-16T13:15:48.526Z,34.49
2023-05-16T13:16:51.456Z,40.08
2023-05-16T13:17:54.677Z,31.15
2023-05-16T13:18:57.558Z,33.75
2023-05-16T13:20:00.374Z,42.05
2023-05-16T13:21:04.482Z,32.95
2023-05-16T13:22:07.147Z,35.44
2023-05-16T13:23:09.812Z,30.98
2023-05-16T13:24:12.584Z,29.03
2023-05-16T13:25:15.364Z,33.97
2023-05-16T13:26:18.134Z,31.89
2023-05-16T13:27:21.308Z,28.12
2023-05-16T13:28:24.095Z,23.08
2023-05-16T13:29:26.961Z,20.62
2023-05-16T13:30:29.936Z,20.06
2023-05-16T13:31:32.874Z,18.65
2023-05-16T13:32:35.640Z,19.64
2023-05-16T13:33:39.797Z,24.75
2023-05-16T13:34:42.474Z,26.04
2023-05-16T13:35:45.237Z,22.92
2023-05-16T13:36:53.843Z,23.59
2023-05-16T13:37:52.420Z,19.15
2023-05-16T13:38:55.189Z,21.78
2023-05-16T13:39:57.969Z,21.31
2023-05-16T13:41:00.942Z,16.82
2023-05-16T13:42:03.920Z,15.17
2023-05-16T13:43:07.198Z,17.08
2023-05-16T13:44:10.187Z,13.79
2023-05-16T13:45:13.262Z,14.38
2023-05-16T13:46:16.279Z,13.56
2023-05-16T13:47:19.417Z,12.62